VEAT/IXA METAR and TAF weather

Enter ICAO airport designator
Station Type Date Time Source
VEAT METAR 2019/05/23 13:30 UTC NOAA

VEAT 231330Z 00000KT 5000 BR FEW018 BKN100 30/26 Q1006 NOSIG


Station Type Date Time Source
VEAT Decoded METAR 2019/05/23 13:30 UTC NOAA

Agartala, India (VEAT) 23-53N 091-15E 16M
May 23, 2019 - 09:30 AM EDT / 2019.05.23 1330 UTC
Wind: Calm:0
Visibility: 3 mile(s):0
Sky conditions: mostly cloudy
Weather: mist
Temperature: 86 F (30 C)
Heat index: 99.3 F (37.4 C):1
Dew Point: 78 F (26 C)
Relative Humidity: 79%
Pressure (altimeter): 29.71 in. Hg (1006 hPa)
ob: VEAT 231330Z 00000KT 5000 BR FEW018 BKN100 30/26 Q1006 NOSIG
cycle: 13

Station Type Date Time Source
VEAT TAF 2013/07/19 12:00 UTC NOAA

TAF VEAT 190900Z 1912/1921 16008KT 5000 HZ SCT018 FEW030CB BKN100
TEMPO 1912/1921 3000 -TSRA SCT015 FEW025CB OVC090

Example: see airport list